createdAt,value
2017-04-22T00:00:40.136Z,982.37
2017-04-22T00:01:40.728Z,982.33
2017-04-22T00:02:41.328Z,982.33
2017-04-22T00:03:41.920Z,982.31
2017-04-22T00:04:42.515Z,982.29
2017-04-22T00:05:43.110Z,982.31
2017-04-22T00:06:43.714Z,982.33
2017-04-22T00:07:44.304Z,982.30
2017-04-22T00:08:44.902Z,982.29
2017-04-22T00:09:45.497Z,982.26
2017-04-22T00:10:46.094Z,982.27
2017-04-22T00:11:46.682Z,982.25
2017-04-22T00:12:47.276Z,982.23
2017-04-22T00:13:47.869Z,982.23
2017-04-22T00:14:48.465Z,982.24
2017-04-22T00:15:49.059Z,982.26
2017-04-22T00:16:49.652Z,982.22
2017-04-22T00:17:50.254Z,982.19
2017-04-22T00:18:50.844Z,982.20
2017-04-22T00:19:51.439Z,982.18
2017-04-22T00:20:52.036Z,982.18
2017-04-22T00:21:52.629Z,982.14
2017-04-22T00:22:53.225Z,982.17
2017-04-22T00:23:53.825Z,982.13
2017-04-22T00:24:54.417Z,982.12
2017-04-22T00:25:55.027Z,982.15
2017-04-22T00:26:55.627Z,982.14
2017-04-22T00:27:56.216Z,982.10
2017-04-22T00:28:56.818Z,982.10
2017-04-22T00:29:57.411Z,982.10
2017-04-22T00:30:58.020Z,982.10
2017-04-22T00:31:58.620Z,982.06
2017-04-22T00:32:59.211Z,982.07
2017-04-22T00:33:59.804Z,982.08
2017-04-22T00:35:00.398Z,982.05
2017-04-22T00:36:00.991Z,982.07
2017-04-22T00:37:01.589Z,982.07
2017-04-22T00:38:02.187Z,982.05
2017-04-22T00:39:02.786Z,982.05
2017-04-22T00:40:03.386Z,982.05
2017-04-22T00:41:03.988Z,982.07
2017-04-22T00:42:04.584Z,982.06
2017-04-22T00:43:05.176Z,982.05
2017-04-22T00:44:05.785Z,982.05
2017-04-22T00:45:06.379Z,982.03
2017-04-22T00:46:06.974Z,982.01
2017-04-22T00:47:07.574Z,981.99
2017-04-22T00:48:08.165Z,982.00
2017-04-22T00:49:08.760Z,981.99
2017-04-22T00:50:09.358Z,981.97
2017-04-22T00:51:09.950Z,981.98
2017-04-22T00:52:10.546Z,981.96
2017-04-22T00:53:11.144Z,981.96
2017-04-22T00:54:11.741Z,981.94
2017-04-22T00:55:12.332Z,981.92
2017-04-22T00:56:12.927Z,981.88
2017-04-22T00:57:13.520Z,981.91
2017-04-22T00:58:14.113Z,981.89
2017-04-22T00:59:14.708Z,981.89
2017-04-22T01:00:15.317Z,981.87
2017-04-22T01:01:15.910Z,981.86
2017-04-22T01:02:16.504Z,981.86
2017-04-22T01:03:17.099Z,981.84
2017-04-22T01:04:17.692Z,981.84
2017-04-22T01:05:18.286Z,981.85
2017-04-22T01:06:18.880Z,981.82
2017-04-22T01:07:19.480Z,981.79
2017-04-22T01:08:20.077Z,981.87
2017-04-22T01:09:20.669Z,981.82
2017-04-22T01:10:21.261Z,981.79
2017-04-22T01:11:21.862Z,981.80
2017-04-22T01:12:22.452Z,981.78
2017-04-22T01:13:23.047Z,981.77
2017-04-22T01:14:23.641Z,981.78
2017-04-22T01:15:24.239Z,981.76
2017-04-22T01:16:24.836Z,981.76
2017-04-22T01:17:25.432Z,981.71
2017-04-22T01:18:26.029Z,981.70
2017-04-22T01:19:26.619Z,981.72
2017-04-22T01:20:27.213Z,981.76
2017-04-22T01:21:27.813Z,981.76
2017-04-22T01:22:28.404Z,981.74
2017-04-22T01:23:28.996Z,981.74
2017-04-22T01:24:29.589Z,981.72
2017-04-22T01:25:30.188Z,981.74
2017-04-22T01:26:30.786Z,981.71
2017-04-22T01:27:31.382Z,981.70
2017-04-22T01:28:31.999Z,981.70
2017-04-22T01:29:32.595Z,981.67
2017-04-22T01:30:33.192Z,981.67
2017-04-22T01:31:33.783Z,981.65
2017-04-22T01:32:34.374Z,981.65
2017-04-22T01:33:34.969Z,981.66
2017-04-22T01:34:35.562Z,981.67
2017-04-22T01:35:36.157Z,981.66
2017-04-22T01:36:36.749Z,981.63
2017-04-22T01:37:37.345Z,981.62
2017-04-22T01:38:37.938Z,981.60
2017-04-22T01:39:38.538Z,981.63
2017-04-22T01:40:39.128Z,981.59
2017-04-22T01:41:39.737Z,981.63
2017-04-22T01:42:40.330Z,981.58
2017-04-22T01:43:40.930Z,981.58
2017-04-22T01:44:41.539Z,981.60
2017-04-22T01:45:42.134Z,981.57
2017-04-22T01:46:42.729Z,981.57
2017-04-22T01:47:43.322Z,981.59
2017-04-22T01:48:43.916Z,981.56
2017-04-22T01:49:44.510Z,981.57
2017-04-22T01:50:45.119Z,981.58
2017-04-22T01:51:45.733Z,981.56
2017-04-22T01:52:46.325Z,981.53
2017-04-22T01:53:46.924Z,981.54
2017-04-22T01:54:47.516Z,981.55
2017-04-22T01:55:48.116Z,981.55
2017-04-22T01:56:48.706Z,981.53
2017-04-22T01:57:49.301Z,981.51
2017-04-22T01:58:49.908Z,981.50
2017-04-22T01:59:50.503Z,981.50
2017-04-22T02:00:51.117Z,981.50
2017-04-22T02:01:51.709Z,981.50
2017-04-22T02:02:52.327Z,981.51
2017-04-22T02:03:52.917Z,981.49
2017-04-22T02:04:53.511Z,981.48
2017-04-22T02:05:54.106Z,981.46
2017-04-22T02:06:54.699Z,981.49
2017-04-22T02:07:55.311Z,981.47
2017-04-22T02:08:55.902Z,981.47
2017-04-22T02:09:56.501Z,981.47
2017-04-22T02:10:57.093Z,981.46
2017-04-22T02:11:57.686Z,981.43
2017-04-22T02:12:58.285Z,981.44
2017-04-22T02:13:58.877Z,981.47
2017-04-22T02:14:59.470Z,981.42
2017-04-22T02:16:00.066Z,981.47
2017-04-22T02:17:00.658Z,981.46
2017-04-22T02:18:01.257Z,981.45
2017-04-22T02:19:01.867Z,981.44
2017-04-22T02:20:02.460Z,981.43
2017-04-22T02:21:03.059Z,981.42
2017-04-22T02:22:03.651Z,981.39
2017-04-22T02:23:04.245Z,981.41
2017-04-22T02:24:04.837Z,981.38
2017-04-22T02:25:05.437Z,981.39
2017-04-22T02:26:06.027Z,981.42
2017-04-22T02:27:06.626Z,981.40
2017-04-22T02:28:07.216Z,981.36
2017-04-22T02:29:07.817Z,981.37
2017-04-22T02:30:08.407Z,981.38
2017-04-22T02:31:09.022Z,981.38
2017-04-22T02:32:09.613Z,981.40
2017-04-22T02:33:10.208Z,981.40
2017-04-22T02:34:10.807Z,981.37
2017-04-22T02:35:11.398Z,981.40
2017-04-22T02:36:12.007Z,981.38
2017-04-22T02:37:12.603Z,981.35
2017-04-22T02:38:13.193Z,981.40
2017-04-22T02:39:13.793Z,981.39
2017-04-22T02:40:14.383Z,981.37
2017-04-22T02:41:14.977Z,981.39
2017-04-22T02:42:15.570Z,981.42
2017-04-22T02:43:16.179Z,981.39
2017-04-22T02:44:16.778Z,981.36
2017-04-22T02:45:17.371Z,981.38
2017-04-22T02:46:17.970Z,981.41
2017-04-22T02:47:18.559Z,981.35
2017-04-22T02:48:19.225Z,981.33
2017-04-22T02:49:19.824Z,981.32
2017-04-22T02:50:20.414Z,981.28
2017-04-22T02:51:21.008Z,981.34
2017-04-22T02:52:21.601Z,981.30
2017-04-22T02:53:22.209Z,981.27
2017-04-22T02:54:22.809Z,981.31
2017-04-22T02:55:23.418Z,981.27
2017-04-22T02:56:24.010Z,981.27
2017-04-22T02:57:24.624Z,981.32
2017-04-22T02:58:25.216Z,981.28
2017-04-22T02:59:25.809Z,981.26
2017-04-22T03:00:26.403Z,981.25
2017-04-22T03:01:26.996Z,981.24
2017-04-22T03:02:27.589Z,981.24
2017-04-22T03:03:28.181Z,981.22
2017-04-22T03:04:28.775Z,981.25
2017-04-22T03:05:29.385Z,981.25
2017-04-22T03:06:29.976Z,981.22
2017-04-22T03:07:30.570Z,981.22
2017-04-22T03:08:31.164Z,981.20
2017-04-22T03:09:31.757Z,981.20
2017-04-22T03:10:32.356Z,981.21
2017-04-22T03:11:32.947Z,981.20
2017-04-22T03:12:33.540Z,981.16
2017-04-22T03:13:34.133Z,981.17
2017-04-22T03:14:34.727Z,981.14
2017-04-22T03:15:35.340Z,981.09
2017-04-22T03:16:35.979Z,981.13
2017-04-22T03:17:36.571Z,981.13
2017-04-22T03:18:37.170Z,981.11
2017-04-22T03:19:37.767Z,981.14
2017-04-22T03:20:38.361Z,981.15
2017-04-22T03:21:38.956Z,981.14
2017-04-22T03:22:39.546Z,981.12
2017-04-22T03:23:40.141Z,981.14
2017-04-22T03:24:40.736Z,981.11
2017-04-22T03:25:41.343Z,981.10
2017-04-22T03:26:41.938Z,981.12
2017-04-22T03:27:42.531Z,981.12
2017-04-22T03:28:43.130Z,981.08
2017-04-22T03:29:43.720Z,981.07
2017-04-22T03:30:44.313Z,981.09
2017-04-22T03:31:44.907Z,981.10
2017-04-22T03:32:45.499Z,981.04
2017-04-22T03:33:46.092Z,981.09
2017-04-22T03:34:46.687Z,981.07
2017-04-22T03:35:47.280Z,981.08
2017-04-22T03:36:47.872Z,981.08
2017-04-22T03:37:48.466Z,981.06
2017-04-22T03:38:49.058Z,981.04
2017-04-22T03:39:49.650Z,981.04
2017-04-22T03:40:50.246Z,981.07
2017-04-22T03:41:50.853Z,981.10
2017-04-22T03:42:51.451Z,981.06
2017-04-22T03:43:52.041Z,981.04
2017-04-22T03:44:52.636Z,981.02
2017-04-22T03:45:53.234Z,981.04
2017-04-22T03:46:53.831Z,981.02
2017-04-22T03:47:54.419Z,981.03
2017-04-22T03:48:55.012Z,981.05
2017-04-22T03:49:55.605Z,980.98
2017-04-22T03:50:56.200Z,981.03
2017-04-22T03:51:56.794Z,981.07
2017-04-22T03:52:57.385Z,981.09
2017-04-22T03:53:57.983Z,981.08
2017-04-22T03:54:58.578Z,981.10
2017-04-22T03:55:59.170Z,981.10
2017-04-22T03:56:59.764Z,981.10
2017-04-22T03:58:00.358Z,981.14
2017-04-22T03:59:00.956Z,981.14
2017-04-22T04:00:01.553Z,981.08
2017-04-22T04:01:02.142Z,981.14
2017-04-22T04:02:02.738Z,981.11
2017-04-22T04:03:03.328Z,981.10
2017-04-22T04:04:03.926Z,981.05
2017-04-22T04:05:04.524Z,981.10
2017-04-22T04:06:05.115Z,981.07
2017-04-22T04:07:05.709Z,981.08
2017-04-22T04:08:06.309Z,981.08
2017-04-22T04:09:06.907Z,981.08
2017-04-22T04:10:07.497Z,981.06
2017-04-22T04:11:08.098Z,981.08
2017-04-22T04:12:08.689Z,981.07
2017-04-22T04:13:09.299Z,981.05
2017-04-22T04:14:09.898Z,981.04
2017-04-22T04:15:10.508Z,981.02
2017-04-22T04:16:11.101Z,981.02
2017-04-22T04:17:11.694Z,981.11
2017-04-22T04:18:12.287Z,981.09
2017-04-22T04:19:12.901Z,981.14
2017-04-22T04:20:13.494Z,981.10
2017-04-22T04:21:14.087Z,981.11
2017-04-22T04:22:14.683Z,981.11
2017-04-22T04:23:15.292Z,981.12
2017-04-22T04:24:15.894Z,981.13
2017-04-22T04:25:16.487Z,981.14
2017-04-22T04:26:17.105Z,981.15
2017-04-22T04:27:17.699Z,981.13
2017-04-22T04:28:18.289Z,981.17
2017-04-22T04:29:18.891Z,981.16
2017-04-22T04:30:19.485Z,981.19
2017-04-22T04:31:20.081Z,981.19
2017-04-22T04:32:20.693Z,981.19
2017-04-22T04:33:21.288Z,981.22
2017-04-22T04:34:21.885Z,981.19
2017-04-22T04:35:22.480Z,981.18
2017-04-22T04:36:23.096Z,981.22
2017-04-22T04:37:23.696Z,981.24
2017-04-22T04:38:24.291Z,981.25
2017-04-22T04:39:24.886Z,981.27
2017-04-22T04:40:25.482Z,981.27
2017-04-22T04:41:26.078Z,981.27
2017-04-22T04:42:26.681Z,981.28
2017-04-22T04:43:27.274Z,981.26
2017-04-22T04:44:27.876Z,981.27
2017-04-22T04:45:28.468Z,981.28
2017-04-22T04:46:29.071Z,981.25
2017-04-22T04:47:29.667Z,981.29
2017-04-22T04:48:30.276Z,981.23
2017-04-22T04:49:30.873Z,981.25
2017-04-22T04:50:31.475Z,981.25
2017-04-22T04:51:32.067Z,981.25
2017-04-22T04:52:32.665Z,981.24
2017-04-22T04:53:33.261Z,981.27
2017-04-22T04:54:33.864Z,981.23
2017-04-22T04:55:34.463Z,981.27
2017-04-22T04:56:35.056Z,981.22
2017-04-22T04:57:35.661Z,981.22
2017-04-22T04:58:36.256Z,981.25
2017-04-22T04:59:36.854Z,981.25
2017-04-22T05:00:37.454Z,981.29
2017-04-22T05:01:38.065Z,981.30
2017-04-22T05:02:38.680Z,981.35
2017-04-22T05:03:39.300Z,981.29
2017-04-22T05:04:39.900Z,981.34
2017-04-22T05:05:40.496Z,981.27
2017-04-22T05:06:41.101Z,981.28
2017-04-22T05:07:41.702Z,981.37
2017-04-22T05:08:42.554Z,981.33
2017-04-22T05:09:43.154Z,981.29
2017-04-22T05:10:43.756Z,981.32
2017-04-22T05:11:44.353Z,981.30
2017-04-22T05:12:44.953Z,981.30
2017-04-22T05:13:45.561Z,981.29
2017-04-22T05:14:46.160Z,981.31
2017-04-22T05:15:47.011Z,981.33
2017-04-22T05:16:47.614Z,981.32
2017-04-22T05:17:48.216Z,981.34
2017-04-22T05:18:49.120Z,981.36
2017-04-22T05:19:49.728Z,981.34
2017-04-22T05:20:50.577Z,981.34
2017-04-22T05:21:51.180Z,981.36
2017-04-22T05:22:51.789Z,981.37
2017-04-22T05:23:52.392Z,981.42
2017-04-22T05:24:52.998Z,981.41
2017-04-22T05:25:53.604Z,981.42
2017-04-22T05:26:54.214Z,981.44
2017-04-22T05:27:54.841Z,981.48
2017-04-22T05:28:55.445Z,981.44
2017-04-22T05:29:56.049Z,981.42
2017-04-22T05:30:56.653Z,981.43
2017-04-22T05:31:57.281Z,981.44
2017-04-22T05:32:57.885Z,981.45
2017-04-22T05:33:58.507Z,981.45
2017-04-22T05:34:59.118Z,981.45
2017-04-22T05:35:59.721Z,981.43
2017-04-22T05:37:00.330Z,981.45
2017-04-22T05:38:00.940Z,981.50
2017-04-22T05:39:01.546Z,981.48
2017-04-22T05:40:02.155Z,981.49
2017-04-22T05:41:02.764Z,981.52
2017-04-22T05:42:03.372Z,981.50
2017-04-22T05:43:04.000Z,981.55
2017-04-22T05:44:04.610Z,981.50
2017-04-22T05:45:05.214Z,981.52
2017-04-22T05:46:05.823Z,981.49
2017-04-22T05:47:06.449Z,981.47
2017-04-22T05:48:07.323Z,981.48
2017-04-22T05:49:07.931Z,981.48
2017-04-22T05:50:08.557Z,981.51
2017-04-22T05:51:09.187Z,981.52
2017-04-22T05:52:09.796Z,981.49
2017-04-22T05:53:10.654Z,981.47
2017-04-22T05:54:11.288Z,981.52
2017-04-22T05:55:11.900Z,981.52
2017-04-22T05:56:12.507Z,981.50
2017-04-22T05:57:13.204Z,981.48
2017-04-22T05:58:13.817Z,981.48
2017-04-22T05:59:14.434Z,981.51
2017-04-22T06:00:15.045Z,981.52
2017-04-22T06:01:15.659Z,981.55
2017-04-22T06:02:16.272Z,981.49
2017-04-22T06:03:16.886Z,981.51
2017-04-22T06:04:17.497Z,981.49
2017-04-22T06:05:18.110Z,981.51
2017-04-22T06:06:18.745Z,981.52
2017-04-22T06:07:19.354Z,981.46
2017-04-22T06:08:19.968Z,981.49
2017-04-22T06:09:20.582Z,981.52
2017-04-22T06:10:21.197Z,981.49
2017-04-22T06:11:21.811Z,981.49
2017-04-22T06:12:22.446Z,981.48
2017-04-22T06:13:23.075Z,981.44
2017-04-22T06:14:23.684Z,981.46
2017-04-22T06:15:24.299Z,981.45
2017-04-22T06:16:24.919Z,981.41
2017-04-22T06:17:25.551Z,981.45
2017-04-22T06:18:26.419Z,981.44
2017-04-22T06:19:27.104Z,981.47
2017-04-22T06:20:27.714Z,981.47
2017-04-22T06:21:28.328Z,981.54
2017-04-22T06:22:28.950Z,981.55
2017-04-22T06:23:29.561Z,981.54
2017-04-22T06:24:30.426Z,981.52
2017-04-22T06:25:31.043Z,981.59
2017-04-22T06:26:31.656Z,981.58
2017-04-22T06:27:32.273Z,981.57
2017-04-22T06:28:32.887Z,981.57
2017-04-22T06:29:33.509Z,981.60
2017-04-22T06:30:34.370Z,981.60
2017-04-22T06:31:34.985Z,981.57
2017-04-22T06:32:35.616Z,981.58
2017-04-22T06:33:36.305Z,981.54
2017-04-22T06:34:36.925Z,981.56
2017-04-22T06:35:37.788Z,981.58
2017-04-22T06:36:38.406Z,981.53
2017-04-22T06:37:39.045Z,981.54
2017-04-22T06:38:39.659Z,981.54
2017-04-22T06:39:40.277Z,981.49
2017-04-22T06:40:40.894Z,981.50
2017-04-22T06:41:41.510Z,981.48
2017-04-22T06:42:42.128Z,981.45
2017-04-22T06:43:42.745Z,981.47
2017-04-22T06:44:43.362Z,981.40
2017-04-22T06:45:43.982Z,981.41
2017-04-22T06:46:44.599Z,981.39
2017-04-22T06:47:45.216Z,981.40
2017-04-22T06:48:45.833Z,981.41
2017-04-22T06:49:46.498Z,981.45
2017-04-22T06:50:47.116Z,981.42
2017-04-22T06:51:47.733Z,981.46
2017-04-22T06:52:48.359Z,981.54
2017-04-22T06:53:48.975Z,982.28
2017-04-22T06:54:49.614Z,984.13
2017-04-22T06:55:50.230Z,985.03
2017-04-22T06:56:50.851Z,984.95
2017-04-22T06:57:51.467Z,984.74
2017-04-22T06:58:52.086Z,984.69
2017-04-22T06:59:52.705Z,984.57
2017-04-22T07:00:53.323Z,984.62
2017-04-22T07:01:53.944Z,984.47
2017-04-22T07:02:54.563Z,984.35
2017-04-22T07:03:55.188Z,984.37
2017-04-22T07:04:55.810Z,984.45
2017-04-22T07:05:56.446Z,984.44
2017-04-22T07:06:57.063Z,984.29
2017-04-22T07:07:57.681Z,984.34
2017-04-22T07:08:58.301Z,983.86
2017-04-22T07:09:58.942Z,982.52
2017-04-22T07:10:59.558Z,981.42
2017-04-22T07:12:00.179Z,981.20
2017-04-22T07:13:00.796Z,981.22
2017-04-22T07:14:01.434Z,981.17
2017-04-22T07:15:02.103Z,981.18
2017-04-22T07:16:02.724Z,981.16
2017-04-22T07:17:03.343Z,981.17
2017-04-22T07:18:03.983Z,981.10
2017-04-22T07:19:04.600Z,981.14
2017-04-22T07:20:05.222Z,981.12
2017-04-22T07:21:05.843Z,981.13
2017-04-22T07:22:06.479Z,981.11
2017-04-22T07:23:07.101Z,981.10
2017-04-22T07:24:07.722Z,981.10
2017-04-22T07:25:08.344Z,981.07
2017-04-22T07:26:08.962Z,981.08
2017-04-22T07:27:09.590Z,981.09
2017-04-22T07:28:10.208Z,981.06
2017-04-22T07:29:10.829Z,981.05
2017-04-22T07:30:11.465Z,981.06
2017-04-22T07:31:12.087Z,981.05
2017-04-22T07:32:12.709Z,981.07
2017-04-22T07:33:13.332Z,981.06
2017-04-22T07:34:13.970Z,981.04
2017-04-22T07:35:14.599Z,981.03
2017-04-22T07:36:15.217Z,981.01
2017-04-22T07:37:15.839Z,980.97
2017-04-22T07:38:16.460Z,980.96
2017-04-22T07:39:17.083Z,980.98
2017-04-22T07:40:17.703Z,980.91
2017-04-22T07:41:18.328Z,980.92
2017-04-22T07:42:18.970Z,980.89
2017-04-22T07:43:19.590Z,980.92
2017-04-22T07:44:20.213Z,980.88
2017-04-22T07:45:20.837Z,980.88
2017-04-22T07:46:21.458Z,980.90
2017-04-22T07:47:22.080Z,980.89
2017-04-22T07:48:22.718Z,980.90
2017-04-22T07:49:23.342Z,980.91
2017-04-22T07:50:24.014Z,980.89
2017-04-22T07:51:24.640Z,980.89
2017-04-22T07:52:25.278Z,980.84
2017-04-22T07:53:25.898Z,980.83
2017-04-22T07:54:26.522Z,980.85
2017-04-22T07:55:27.149Z,980.83
2017-04-22T07:56:27.768Z,980.81
2017-04-22T07:57:28.392Z,980.82
2017-04-22T07:58:29.029Z,980.83
2017-04-22T07:59:29.668Z,980.84
2017-04-22T08:00:30.291Z,980.82
2017-04-22T08:01:30.923Z,980.81
2017-04-22T08:02:31.557Z,980.82
2017-04-22T08:03:32.179Z,980.80
2017-04-22T08:04:32.804Z,980.85
2017-04-22T08:05:33.443Z,980.81
2017-04-22T08:06:34.066Z,980.83
2017-04-22T08:07:34.694Z,980.83
2017-04-22T08:08:35.325Z,980.76
2017-04-22T08:09:35.963Z,980.81
2017-04-22T08:10:36.588Z,980.86
2017-04-22T08:11:37.226Z,980.84
2017-04-22T08:12:37.856Z,980.87
2017-04-22T08:13:38.477Z,980.88
2017-04-22T08:14:39.108Z,980.90
2017-04-22T08:15:39.729Z,980.84
2017-04-22T08:16:40.359Z,980.87
2017-04-22T08:17:40.985Z,980.84
2017-04-22T08:18:41.605Z,980.79
2017-04-22T08:19:42.245Z,980.79
2017-04-22T08:20:42.871Z,980.81
2017-04-22T08:21:43.495Z,980.80
2017-04-22T08:22:44.118Z,980.75
2017-04-22T08:23:44.757Z,980.77
2017-04-22T08:24:45.381Z,980.76
2017-04-22T08:25:46.007Z,980.76
2017-04-22T08:26:46.633Z,980.69
2017-04-22T08:27:47.258Z,980.68
2017-04-22T08:28:47.882Z,980.66
2017-04-22T08:29:48.512Z,980.66
2017-04-22T08:30:49.385Z,980.65
2017-04-22T08:31:50.015Z,980.69
2017-04-22T08:32:50.637Z,980.66
2017-04-22T08:33:51.267Z,980.63
2017-04-22T08:34:51.895Z,980.62
2017-04-22T08:35:52.515Z,980.63
2017-04-22T08:36:53.156Z,980.60
2017-04-22T08:37:53.780Z,980.59
2017-04-22T08:38:54.411Z,980.60
2017-04-22T08:39:55.033Z,980.59
2017-04-22T08:40:55.917Z,980.62
2017-04-22T08:41:56.554Z,980.59
2017-04-22T08:42:57.180Z,980.57
2017-04-22T08:43:57.819Z,980.58
2017-04-22T08:44:58.446Z,980.58
2017-04-22T08:45:59.092Z,980.55
2017-04-22T08:46:59.983Z,980.56
2017-04-22T08:48:00.608Z,980.54
2017-04-22T08:49:01.233Z,980.53
2017-04-22T08:50:01.863Z,980.52
2017-04-22T08:51:02.501Z,980.47
2017-04-22T08:52:03.133Z,980.41
2017-04-22T08:53:04.007Z,980.47
2017-04-22T08:54:04.654Z,980.46
2017-04-22T08:55:05.273Z,980.49
2017-04-22T08:56:05.914Z,980.45
2017-04-22T08:57:06.555Z,980.44
2017-04-22T08:58:07.182Z,980.42
2017-04-22T08:59:07.807Z,980.47
2017-04-22T09:00:08.433Z,980.39
2017-04-22T09:01:09.058Z,980.40
2017-04-22T09:02:09.691Z,980.38
2017-04-22T09:03:10.317Z,980.38
2017-04-22T09:04:10.944Z,980.35
2017-04-22T09:05:11.570Z,980.38
2017-04-22T09:06:12.199Z,980.37
2017-04-22T09:07:12.824Z,980.33
2017-04-22T09:08:13.450Z,980.32
